Time;durP1;ratioP1;P1;durP2;ratioP2;P2;SDS_P1;SDS_P2;PMS_P1;PMS_P2;Temp;Humidity;BMP_temperature;BMP_pressure;BME280_temperature;BME280_humidity;BME280_pressure;Samples;Min_cycle;Max_cycle;Signal;HPM_P1;HPM_P2
2023/04/06 00:02:27;;;;;;;;;;;19.70;30.00;;;;;;8397598;28;19928;-43
2023/04/06 00:06:28;;;;;;;;;;;19.70;30.00;;;;;;8397761;28;19987;-43
2023/04/06 00:10:28;;;;;;;;;;;19.70;30.00;;;;;;8398191;28;20001;-43
2023/04/06 00:14:29;;;;;;;;;;;19.60;30.00;;;;;;8397086;28;20270;-43
2023/04/06 00:18:29;;;;;;;;;;;19.60;30.00;;;;;;8397905;28;20293;-43
2023/04/06 00:22:30;;;;;;;;;;;19.60;30.00;;;;;;8397580;28;19962;-43
2023/04/06 00:26:30;;;;;;;;;;;19.60;30.00;;;;;;8396711;28;19928;-44
2023/04/06 00:30:31;;;;;;;;;;;19.60;30.00;;;;;;8397364;28;20328;-43
2023/04/06 00:34:31;;;;;;;;;;;19.60;30.00;;;;;;8396983;28;19920;-43
2023/04/06 00:38:32;;;;;;;;;;;19.50;30.00;;;;;;8396399;28;19924;-43
2023/04/06 00:42:32;;;;;;;;;;;19.50;30.00;;;;;;8396823;28;19964;-44
2023/04/06 00:46:33;;;;;;;;;;;19.50;30.00;;;;;;8396536;28;19927;-43
2023/04/06 00:50:33;;;;;;;;;;;19.50;30.00;;;;;;8396259;28;20396;-43
2023/04/06 00:54:34;;;;;;;;;;;19.50;30.00;;;;;;8396708;28;19916;-43
2023/04/06 00:58:37;;;;;;;;;;;19.40;30.00;;;;;;8396837;28;19916;-43
2023/04/06 01:02:38;;;;;;;;;;;19.40;29.90;;;;;;8396460;28;19924;-42
2023/04/06 01:06:38;;;;;;;;;;;19.40;30.00;;;;;;8364900;28;19951;-43
2023/04/06 01:10:39;;;;;;;;;;;19.40;30.00;;;;;;8396696;28;19931;-42
2023/04/06 01:14:39;;;;;;;;;;;19.40;30.00;;;;;;8395911;28;19916;-43
2023/04/06 01:18:42;;;;;;;;;;;19.40;30.00;;;;;;8396215;28;19916;-43
2023/04/06 01:22:42;;;;;;;;;;;19.40;30.00;;;;;;8396463;28;19923;-43
2023/04/06 01:26:43;;;;;;;;;;;19.30;30.00;;;;;;8395709;28;19924;-42
2023/04/06 01:30:43;;;;;;;;;;;19.30;29.90;;;;;;8396193;28;19916;-43
2023/04/06 01:34:43;;;;;;;;;;;19.30;30.00;;;;;;8396048;28;19920;-43
2023/04/06 01:38:44;;;;;;;;;;;19.30;30.00;;;;;;8395564;28;19927;-43
2023/04/06 01:42:45;;;;;;;;;;;19.30;30.00;;;;;;8396435;28;19913;-43
2023/04/06 01:46:46;;;;;;;;;;;19.20;30.00;;;;;;8396117;28;19925;-43
2023/04/06 01:50:46;;;;;;;;;;;19.20;30.00;;;;;;8395333;28;19919;-44
2023/04/06 01:54:46;;;;;;;;;;;19.20;30.00;;;;;;8395963;28;19922;-43
2023/04/06 01:58:47;;;;;;;;;;;19.20;30.00;;;;;;8396210;28;20003;-43
2023/04/06 02:02:47;;;;;;;;;;;19.20;30.00;;;;;;8397434;28;19921;-43
2023/04/06 02:06:48;;;;;;;;;;;19.20;30.00;;;;;;8400549;28;20003;-43
2023/04/06 02:10:48;;;;;;;;;;;19.20;30.00;;;;;;8401783;28;19916;-43
2023/04/06 02:14:49;;;;;;;;;;;19.20;30.00;;;;;;8401122;28;19917;-43
2023/04/06 02:18:49;;;;;;;;;;;19.10;29.90;;;;;;8401604;28;20433;-43
2023/04/06 02:22:50;;;;;;;;;;;19.10;29.90;;;;;;8401349;28;19912;-43
2023/04/06 02:26:50;;;;;;;;;;;19.10;29.90;;;;;;8400940;28;20282;-43
2023/04/06 02:30:50;;;;;;;;;;;19.10;30.00;;;;;;8401336;28;19916;-43
2023/04/06 02:34:51;;;;;;;;;;;19.10;30.00;;;;;;8400836;28;19920;-43
2023/04/06 02:38:52;;;;;;;;;;;19.00;29.90;;;;;;8400414;28;20345;-43
2023/04/06 02:42:52;;;;;;;;;;;19.00;29.90;;;;;;8400680;28;20413;-42
2023/04/06 02:46:53;;;;;;;;;;;19.00;29.90;;;;;;8400877;28;20303;-43
2023/04/06 02:50:53;;;;;;;;;;;19.00;30.00;;;;;;8400237;28;19924;-43
2023/04/06 02:54:54;;;;;;;;;;;19.00;29.90;;;;;;8400269;28;19916;-44
2023/04/06 02:58:54;;;;;;;;;;;19.00;29.90;;;;;;8400484;28;19912;-43
2023/04/06 03:02:55;;;;;;;;;;;19.00;30.00;;;;;;8400319;28;19920;-43
2023/04/06 03:06:55;;;;;;;;;;;19.00;29.90;;;;;;8400618;28;20389;-42
2023/04/06 03:10:56;;;;;;;;;;;19.00;29.90;;;;;;8399985;28;20007;-42
2023/04/06 03:14:56;;;;;;;;;;;18.90;29.90;;;;;;8398866;28;20007;-44
2023/04/06 03:18:57;;;;;;;;;;;18.90;29.90;;;;;;8399588;28;19920;-42
2023/04/06 03:22:57;;;;;;;;;;;18.90;29.90;;;;;;8399546;28;20411;-42
2023/04/06 03:26:58;;;;;;;;;;;18.90;29.90;;;;;;8399173;28;19970;-43
2023/04/06 03:30:58;;;;;;;;;;;18.90;29.90;;;;;;8399166;28;20392;-43
2023/04/06 03:34:59;;;;;;;;;;;18.90;30.00;;;;;;8399185;28;20325;-43
2023/04/06 03:38:59;;;;;;;;;;;18.90;29.90;;;;;;8398465;28;19916;-43
2023/04/06 03:43:00;;;;;;;;;;;18.90;29.90;;;;;;8399060;28;20334;-43
2023/04/06 03:47:02;;;;;;;;;;;18.90;29.90;;;;;;8398884;28;19916;-43
2023/04/06 03:51:02;;;;;;;;;;;18.90;29.90;;;;;;8397981;28;19952;-43
2023/04/06 03:55:03;;;;;;;;;;;18.90;29.90;;;;;;8398643;28;19917;-43
2023/04/06 03:59:04;;;;;;;;;;;18.90;29.90;;;;;;8398327;28;20297;-43
2023/04/06 04:03:04;;;;;;;;;;;18.90;29.90;;;;;;8397745;28;19920;-43
2023/04/06 04:07:05;;;;;;;;;;;18.90;29.90;;;;;;8397324;28;19912;-43
2023/04/06 04:11:05;;;;;;;;;;;18.90;29.90;;;;;;8397807;28;20390;-43
2023/04/06 04:15:06;;;;;;;;;;;18.90;30.00;;;;;;8397201;28;19924;-43
2023/04/06 04:19:06;;;;;;;;;;;19.00;29.90;;;;;;8397744;28;19916;-43
2023/04/06 04:23:07;;;;;;;;;;;19.20;29.80;;;;;;8397489;28;19989;-43
2023/04/06 04:27:07;;;;;;;;;;;19.30;29.80;;;;;;8396310;28;20365;-43
2023/04/06 04:31:07;;;;;;;;;;;19.40;29.80;;;;;;8397235;28;19951;-43
2023/04/06 04:35:08;;;;;;;;;;;19.50;29.80;;;;;;8397437;28;20281;-43
2023/04/06 04:39:09;;;;;;;;;;;19.60;29.80;;;;;;8396688;28;19917;-43
2023/04/06 04:43:09;;;;;;;;;;;19.60;29.80;;;;;;8397214;28;19916;-43
2023/04/06 04:47:10;;;;;;;;;;;19.70;29.80;;;;;;8397187;28;19913;-43
2023/04/06 04:51:10;;;;;;;;;;;19.70;29.70;;;;;;8396312;28;20007;-41
2023/04/06 04:55:11;;;;;;;;;;;19.70;29.70;;;;;;8396998;28;19969;-42
2023/04/06 04:59:11;;;;;;;;;;;19.80;29.80;;;;;;8396573;28;19917;-42
2023/04/06 05:03:19;;;;;;;;;;;19.80;29.70;;;;;;8396129;28;20014;-43
2023/04/06 05:07:20;;;;;;;;;;;19.80;29.70;;;;;;8396778;28;19917;-42
2023/04/06 05:11:21;;;;;;;;;;;19.90;29.70;;;;;;8396137;28;19924;-42
2023/04/06 05:15:21;;;;;;;;;;;19.80;29.70;;;;;;8396487;28;20316;-43
2023/04/06 05:19:22;;;;;;;;;;;19.80;29.70;;;;;;8396381;28;20373;-42
2023/04/06 05:23:22;;;;;;;;;;;19.80;29.70;;;;;;8395770;28;19933;-42
2023/04/06 05:27:22;;;;;;;;;;;19.70;29.70;;;;;;8396334;28;19999;-42
2023/04/06 05:31:23;;;;;;;;;;;19.70;29.70;;;;;;8396322;28;19969;-43
2023/04/06 05:35:23;;;;;;;;;;;19.70;29.60;;;;;;8395690;28;19913;-42
2023/04/06 05:39:24;;;;;;;;;;;19.70;29.60;;;;;;8402379;28;19912;-42
2023/04/06 05:43:24;;;;;;;;;;;19.70;29.60;;;;;;8402245;28;20007;-42
2023/04/06 05:47:25;;;;;;;;;;;19.60;29.70;;;;;;8402153;28;19917;-42
2023/04/06 05:51:26;;;;;;;;;;;19.60;29.70;;;;;;8402467;28;19947;-42
2023/04/06 05:55:27;;;;;;;;;;;19.60;29.70;;;;;;8402274;28;19913;-43
2023/04/06 05:59:29;;;;;;;;;;;19.70;29.70;;;;;;8401740;28;19970;-43
2023/04/06 06:03:30;;;;;;;;;;;19.70;29.70;;;;;;8402110;28;19927;-43
2023/04/06 06:07:30;;;;;;;;;;;19.80;29.70;;;;;;8401770;28;20385;-42
2023/04/06 06:11:32;;;;;;;;;;;19.90;29.70;;;;;;8401203;28;19913;-42
2023/04/06 06:15:33;;;;;;;;;;;19.90;29.60;;;;;;8401391;28;19974;-44
2023/04/06 06:19:33;;;;;;;;;;;20.00;29.60;;;;;;8401081;28;19913;-43
2023/04/06 06:23:34;;;;;;;;;;;20.10;29.50;;;;;;8401069;28;20365;-43
2023/04/06 06:27:34;;;;;;;;;;;20.20;29.40;;;;;;8401289;28;19923;-43
2023/04/06 06:31:36;;;;;;;;;;;20.20;29.30;;;;;;8400841;28;19920;-43
2023/04/06 06:35:36;;;;;;;;;;;20.20;29.20;;;;;;8400289;28;19919;-43
2023/04/06 06:39:37;;;;;;;;;;;20.30;29.20;;;;;;8400911;28;19951;-44
2023/04/06 06:43:37;;;;;;;;;;;20.30;29.10;;;;;;8400516;28;19921;-43
2023/04/06 06:47:38;;;;;;;;;;;20.30;29.10;;;;;;8399135;28;20018;-44
2023/04/06 06:51:38;;;;;;;;;;;20.30;29.20;;;;;;8400225;28;19967;-43
2023/04/06 06:55:38;;;;;;;;;;;20.20;29.10;;;;;;8400327;28;19912;-44
2023/04/06 06:59:39;;;;;;;;;;;20.20;29.10;;;;;;8399639;28;19916;-42
2023/04/06 07:03:39;;;;;;;;;;;20.20;29.10;;;;;;8400103;28;19920;-43
2023/04/06 07:07:40;;;;;;;;;;;20.20;29.20;;;;;;8399728;28;19917;-44
2023/04/06 07:11:40;;;;;;;;;;;20.20;29.10;;;;;;8398271;28;20375;-43
2023/04/06 07:15:41;;;;;;;;;;;20.10;29.00;;;;;;8399709;28;20293;-43
2023/04/06 07:19:41;;;;;;;;;;;20.10;29.10;;;;;;8399332;28;19947;-43
2023/04/06 07:23:42;;;;;;;;;;;20.00;29.10;;;;;;8398964;28;19924;-44
2023/04/06 07:27:42;;;;;;;;;;;19.90;29.20;;;;;;8399204;28;19920;-43
2023/04/06 07:31:42;;;;;;;;;;;19.90;29.20;;;;;;8398985;28;19942;-43
2023/04/06 07:35:43;;;;;;;;;;;20.00;29.20;;;;;;8398220;28;19966;-43
2023/04/06 07:39:43;;;;;;;;;;;19.90;29.20;;;;;;8398509;28;19916;-44
2023/04/06 07:43:44;;;;;;;;;;;19.90;29.20;;;;;;8398799;28;19925;-45
2023/04/06 07:47:45;;;;;;;;;;;19.90;29.30;;;;;;8398240;28;19924;-45
2023/04/06 07:51:46;;;;;;;;;;;19.90;29.30;;;;;;8398801;28;19967;-44
2023/04/06 07:55:46;;;;;;;;;;;19.80;29.40;;;;;;8398146;28;19916;-44
2023/04/06 07:59:47;;;;;;;;;;;19.80;29.40;;;;;;8397624;28;19920;-43
2023/04/06 08:03:47;;;;;;;;;;;19.80;29.50;;;;;;8398172;28;20386;-45
2023/04/06 08:07:47;;;;;;;;;;;19.80;29.50;;;;;;8398035;28;19934;-45
2023/04/06 08:11:48;;;;;;;;;;;19.70;29.50;;;;;;8397415;28;19921;-44
2023/04/06 08:15:49;;;;;;;;;;;19.80;29.50;;;;;;8397796;28;19913;-43
2023/04/06 08:19:49;;;;;;;;;;;19.70;29.40;;;;;;8397670;28;19917;-43
2023/04/06 08:23:50;;;;;;;;;;;19.70;29.50;;;;;;8396993;28;19921;-44
2023/04/06 08:27:50;;;;;;;;;;;19.70;29.50;;;;;;8397324;28;19939;-44
2023/04/06 08:31:51;;;;;;;;;;;19.70;29.50;;;;;;8397090;28;20392;-44
2023/04/06 08:35:51;;;;;;;;;;;19.70;29.50;;;;;;8396547;28;19917;-44
2023/04/06 08:39:52;;;;;;;;;;;19.70;29.50;;;;;;8396565;28;19924;-43
2023/04/06 08:43:55;;;;;;;;;;;19.70;29.50;;;;;;8396986;28;20288;-44
2023/04/06 08:47:57;;;;;;;;;;;19.70;29.60;;;;;;8396370;28;19998;-45
2023/04/06 08:51:59;;;;;;;;;;;19.70;29.60;;;;;;8396519;28;19916;-44
2023/04/06 08:56:00;;;;;;;;;;;19.70;29.60;;;;;;8396329;28;19921;-45
2023/04/06 09:00:00;;;;;;;;;;;19.70;29.60;;;;;;8395978;28;20361;-44
2023/04/06 09:04:01;;;;;;;;;;;19.70;29.60;;;;;;8396667;28;20075;-45
2023/04/06 09:08:02;;;;;;;;;;;19.70;29.60;;;;;;8396514;28;19917;-45
2023/04/06 09:12:05;;;;;;;;;;;19.70;29.60;;;;;;8395429;28;19927;-42
2023/04/06 09:16:06;;;;;;;;;;;19.70;29.60;;;;;;8396202;28;19912;-45
2023/04/06 09:20:07;;;;;;;;;;;19.70;29.60;;;;;;8396091;28;19916;-44
2023/04/06 09:24:08;;;;;;;;;;;19.70;29.70;;;;;;8395812;28;19960;-45
2023/04/06 09:28:08;;;;;;;;;;;19.70;29.60;;;;;;8395900;28;19917;-44
2023/04/06 09:32:16;;;;;;;;;;;19.70;29.70;;;;;;8395915;28;20394;-44
2023/04/06 09:36:16;;;;;;;;;;;19.70;29.70;;;;;;8395491;28;19924;-45
2023/04/06 09:40:18;;;;;;;;;;;19.70;29.70;;;;;;8395614;28;20003;-43
2023/04/06 09:44:19;;;;;;;;;;;19.70;29.70;;;;;;8395354;28;20396;-42
2023/04/06 09:48:21;;;;;;;;;;;19.70;29.70;;;;;;8395855;28;20118;-46
2023/04/06 09:52:23;;;;;;;;;;;19.70;29.70;;;;;;8395649;28;19952;-44
2023/04/06 09:56:27;;;;;;;;;;;19.70;29.70;;;;;;8394852;28;19917;-43
2023/04/06 10:00:29;;;;;;;;;;;19.80;29.70;;;;;;8395656;28;19917;-44
2023/04/06 10:04:40;;;;;;;;;;;19.80;29.70;;;;;;8380679;28;20508;-44
2023/04/06 10:08:41;;;;;;;;;;;19.70;29.70;;;;;;8391310;28;19917;-45
2023/04/06 10:12:42;;;;;;;;;;;19.80;29.70;;;;;;8395375;28;19917;-45
2023/04/06 10:16:43;;;;;;;;;;;19.80;29.70;;;;;;8395340;28;19955;-44
2023/04/06 10:20:48;;;;;;;;;;;19.80;29.70;;;;;;8394643;28;19916;-45
2023/04/06 10:24:48;;;;;;;;;;;19.80;29.70;;;;;;8399015;28;19924;-45
2023/04/06 10:28:50;;;;;;;;;;;19.80;29.70;;;;;;8401073;28;19916;-45
2023/04/06 10:32:51;;;;;;;;;;;19.80;29.70;;;;;;8400425;28;19920;-44
2023/04/06 10:36:51;;;;;;;;;;;19.80;29.70;;;;;;8400642;28;20337;-44
2023/04/06 10:40:52;;;;;;;;;;;19.80;29.70;;;;;;8400577;28;19920;-44
2023/04/06 10:44:52;;;;;;;;;;;19.90;29.70;;;;;;8399940;28;20004;-44
2023/04/06 10:48:53;;;;;;;;;;;19.90;29.70;;;;;;8400283;28;19958;-45
2023/04/06 10:53:00;;;;;;;;;;;19.90;29.70;;;;;;8400378;28;19917;-45
2023/04/06 10:57:01;;;;;;;;;;;19.90;29.70;;;;;;8399806;28;19923;-45
2023/04/06 11:01:01;;;;;;;;;;;19.90;29.60;;;;;;8399989;28;19940;-44
2023/04/06 11:05:02;;;;;;;;;;;19.90;29.70;;;;;;8399982;28;20484;-45
2023/04/06 11:09:02;;;;;;;;;;;19.90;29.60;;;;;;8399440;28;19925;-45
2023/04/06 11:13:03;;;;;;;;;;;19.90;29.60;;;;;;8399788;28;19927;-44
2023/04/06 11:17:03;;;;;;;;;;;19.90;29.50;;;;;;8399554;28;19919;-43
2023/04/06 11:21:04;;;;;;;;;;;19.90;29.50;;;;;;8399054;28;19923;-45
2023/04/06 11:25:06;;;;;;;;;;;19.90;29.50;;;;;;8399415;28;20390;-45
2023/04/06 11:29:07;;;;;;;;;;;19.90;29.50;;;;;;8399306;28;19916;-46
2023/04/06 11:33:07;;;;;;;;;;;19.90;29.50;;;;;;8398734;28;19923;-44
2023/04/06 11:37:09;;;;;;;;;;;19.90;29.50;;;;;;8398959;28;19912;-44
2023/04/06 11:41:09;;;;;;;;;;;19.90;29.50;;;;;;8398576;28;19923;-45
2023/04/06 11:45:15;;;;;;;;;;;19.90;29.50;;;;;;8398531;28;20266;-45
2023/04/06 11:49:15;;;;;;;;;;;19.90;29.50;;;;;;8398538;28;19916;-44
2023/04/06 11:53:15;;;;;;;;;;;19.90;29.50;;;;;;8398524;28;19975;-45
2023/04/06 11:57:17;;;;;;;;;;;20.00;29.50;;;;;;8397970;28;19965;-45
2023/04/06 12:01:17;;;;;;;;;;;20.00;29.50;;;;;;8398239;28;19912;-45
2023/04/06 12:05:17;;;;;;;;;;;20.00;29.40;;;;;;8397975;28;19947;-42
2023/04/06 12:09:18;;;;;;;;;;;20.00;29.30;;;;;;8397969;28;19917;-44
2023/04/06 12:13:18;;;;;;;;;;;20.00;29.40;;;;;;8398281;28;19917;-45
2023/04/06 12:17:20;;;;;;;;;;;20.00;29.30;;;;;;8397261;28;20058;-46
2023/04/06 12:21:20;;;;;;;;;;;20.00;29.30;;;;;;8397718;28;20332;-43
2023/04/06 12:25:21;;;;;;;;;;;20.00;29.50;;;;;;8397506;28;20054;-45
2023/04/06 12:29:21;;;;;;;;;;;20.00;29.30;;;;;;8396833;28;19916;-46
2023/04/06 12:33:21;;;;;;;;;;;20.00;29.40;;;;;;8397143;28;19923;-44
2023/04/06 12:37:22;;;;;;;;;;;20.00;29.40;;;;;;8397389;28;19948;-45
2023/04/06 12:41:23;;;;;;;;;;;20.10;29.40;;;;;;8396825;28;20563;-45
2023/04/06 12:45:23;;;;;;;;;;;20.10;29.40;;;;;;8396296;28;20335;-44
2023/04/06 12:49:24;;;;;;;;;;;20.10;29.40;;;;;;8397027;28;20034;-44
2023/04/06 12:53:24;;;;;;;;;;;20.00;29.30;;;;;;8396431;28;19916;-45
2023/04/06 12:57:26;;;;;;;;;;;20.10;29.40;;;;;;8396486;28;19947;-44
2023/04/06 13:01:27;;;;;;;;;;;20.10;29.40;;;;;;8396556;28;19919;-44
2023/04/06 13:05:28;;;;;;;;;;;20.10;29.50;;;;;;8395167;28;20292;-45
2023/04/06 13:09:30;;;;;;;;;;;20.10;29.40;;;;;;8384218;28;21272;-43
2023/04/06 13:13:31;;;;;;;;;;;20.10;29.40;;;;;;8375756;28;19917;-44
2023/04/06 13:17:31;;;;;;;;;;;20.10;29.40;;;;;;8384815;28;19958;-44
2023/04/06 13:21:31;;;;;;;;;;;20.10;29.40;;;;;;8374606;28;19917;-44
2023/04/06 13:25:32;;;;;;;;;;;20.10;29.40;;;;;;8389899;28;19924;-42
2023/04/06 13:29:34;;;;;;;;;;;20.10;29.40;;;;;;8378832;28;19927;-43
2023/04/06 13:33:34;;;;;;;;;;;20.10;29.50;;;;;;8370013;28;20445;-43
2023/04/06 13:37:35;;;;;;;;;;;20.10;29.50;;;;;;8377590;28;19953;-44
2023/04/06 13:41:35;;;;;;;;;;;20.10;29.40;;;;;;8383750;28;20270;-45
2023/04/06 13:45:36;;;;;;;;;;;20.10;29.40;;;;;;8379628;28;19944;-45
2023/04/06 13:49:37;;;;;;;;;;;20.10;29.40;;;;;;8374052;28;19999;-43
2023/04/06 13:53:38;;;;;;;;;;;20.10;29.40;;;;;;8374011;28;19932;-44
2023/04/06 13:57:38;;;;;;;;;;;20.10;29.40;;;;;;8378977;28;20400;-45
2023/04/06 14:01:38;;;;;;;;;;;20.10;29.50;;;;;;8392773;28;19917;-45
2023/04/06 14:05:39;;;;;;;;;;;20.10;29.40;;;;;;8395348;28;20407;-44
2023/04/06 14:09:39;;;;;;;;;;;20.10;29.40;;;;;;8397315;28;20450;-42
2023/04/06 14:13:40;;;;;;;;;;;20.10;29.50;;;;;;8388612;28;19924;-44
2023/04/06 14:17:40;;;;;;;;;;;20.10;29.50;;;;;;8385037;28;20434;-44
2023/04/06 14:21:41;;;;;;;;;;;20.10;29.50;;;;;;8390960;28;20057;-45
2023/04/06 14:25:42;;;;;;;;;;;20.10;29.50;;;;;;8389091;28;19970;-45
2023/04/06 14:29:42;;;;;;;;;;;20.10;29.50;;;;;;8383793;28;20374;-43
2023/04/06 14:33:42;;;;;;;;;;;20.10;29.50;;;;;;8379467;28;20288;-44
2023/04/06 14:37:43;;;;;;;;;;;20.10;29.50;;;;;;8395834;28;19924;-44
2023/04/06 14:41:43;;;;;;;;;;;20.10;29.50;;;;;;8383099;28;19985;-42
2023/04/06 14:45:44;;;;;;;;;;;20.10;29.50;;;;;;8389192;28;19933;-44
2023/04/06 14:49:45;;;;;;;;;;;20.10;29.50;;;;;;8388949;28;19921;-45
2023/04/06 14:53:45;;;;;;;;;;;20.10;29.50;;;;;;8399917;28;19963;-45
2023/04/06 14:57:45;;;;;;;;;;;20.10;29.50;;;;;;8400496;28;19924;-43
2023/04/06 15:01:46;;;;;;;;;;;20.10;29.50;;;;;;8400468;28;19919;-43
2023/04/06 15:05:46;;;;;;;;;;;20.10;29.50;;;;;;8399465;28;19962;-45
2023/04/06 15:09:47;;;;;;;;;;;20.00;29.60;;;;;;8399240;28;19930;-45
2023/04/06 15:13:47;;;;;;;;;;;20.10;29.60;;;;;;8399834;28;19920;-43
2023/04/06 15:17:48;;;;;;;;;;;20.20;29.50;;;;;;8399272;28;20007;-44
2023/04/06 15:21:48;;;;;;;;;;;20.30;29.40;;;;;;8399760;28;19912;-45
2023/04/06 15:25:49;;;;;;;;;;;20.40;29.40;;;;;;8399354;28;19928;-44
2023/04/06 15:29:49;;;;;;;;;;;20.40;29.20;;;;;;8398715;28;19923;-45
2023/04/06 15:33:50;;;;;;;;;;;20.50;29.20;;;;;;8399263;28;20389;-45
2023/04/06 15:37:50;;;;;;;;;;;20.60;29.10;;;;;;8399041;28;19924;-45
2023/04/06 15:41:51;;;;;;;;;;;20.70;29.10;;;;;;8398880;28;19918;-45
2023/04/06 15:45:52;;;;;;;;;;;20.70;29.00;;;;;;8399153;28;19931;-47
2023/04/06 15:49:53;;;;;;;;;;;20.70;29.00;;;;;;8398861;28;19923;-45
2023/04/06 15:53:53;;;;;;;;;;;20.80;29.10;;;;;;8398274;28;20333;-46
2023/04/06 15:57:54;;;;;;;;;;;20.80;29.10;;;;;;8398506;28;20193;-46
2023/04/06 16:01:54;;;;;;;;;;;20.80;29.10;;;;;;8398676;28;19943;-44
2023/04/06 16:05:55;;;;;;;;;;;20.80;29.10;;;;;;8396781;28;20301;-45
2023/04/06 16:09:55;;;;;;;;;;;20.80;29.10;;;;;;8398326;28;19999;-44
2023/04/06 16:13:55;;;;;;;;;;;20.80;29.10;;;;;;8397905;28;19920;-44
2023/04/06 16:17:56;;;;;;;;;;;20.70;29.00;;;;;;8397432;28;20078;-44
2023/04/06 16:21:56;;;;;;;;;;;20.70;29.10;;;;;;8397182;28;19912;-44
2023/04/06 16:25:57;;;;;;;;;;;20.70;29.10;;;;;;8397547;28;20007;-45
2023/04/06 16:29:57;;;;;;;;;;;20.70;29.00;;;;;;8397018;28;19916;-44
2023/04/06 16:33:58;;;;;;;;;;;20.70;29.00;;;;;;8397425;28;19917;-43
2023/04/06 16:38:00;;;;;;;;;;;20.70;29.10;;;;;;8397236;28;19912;-44
2023/04/06 16:42:00;;;;;;;;;;;20.70;29.10;;;;;;8396178;28;19916;-46
2023/04/06 16:46:01;;;;;;;;;;;20.60;29.10;;;;;;8397164;28;20307;-45
2023/04/06 16:50:02;;;;;;;;;;;20.60;29.50;;;;;;8397004;28;19947;-44
2023/04/06 16:54:02;;;;;;;;;;;20.60;29.10;;;;;;8396446;28;19916;-44
2023/04/06 16:58:03;;;;;;;;;;;20.60;29.50;;;;;;8397079;28;19916;-43
2023/04/06 17:02:03;;;;;;;;;;;20.60;29.10;;;;;;8396871;28;19927;-44
2023/04/06 17:06:04;;;;;;;;;;;20.60;29.20;;;;;;8396050;28;20214;-44
2023/04/06 17:10:05;;;;;;;;;;;20.60;29.10;;;;;;8396855;28;19916;-45
2023/04/06 17:14:07;;;;;;;;;;;20.60;29.10;;;;;;8396488;28;19916;-45
2023/04/06 17:18:08;;;;;;;;;;;20.60;29.20;;;;;;8396024;28;20225;-43
2023/04/06 17:22:08;;;;;;;;;;;20.60;29.20;;;;;;8396617;28;19943;-45
2023/04/06 17:26:09;;;;;;;;;;;20.60;29.20;;;;;;8396440;28;20293;-43
2023/04/06 17:34:47;;;;;;;;;;;20.60;29.20;;;;;;8404642;28;20447;-43
2023/04/06 17:38:48;;;;;;;;;;;20.60;29.20;;;;;;8402497;28;19921;-43
2023/04/06 17:42:48;;;;;;;;;;;20.60;29.20;;;;;;8403200;28;19912;-45
2023/04/06 17:46:48;;;;;;;;;;;20.60;29.20;;;;;;8402812;28;19925;-45
2023/04/06 17:50:49;;;;;;;;;;;20.60;29.30;;;;;;8402318;28;19922;-45
2023/04/06 17:54:51;;;;;;;;;;;20.60;29.30;;;;;;8402709;28;19956;-46
2023/04/06 17:58:54;;;;;;;;;;;20.60;29.30;;;;;;8402272;28;19916;-44
2023/04/06 18:02:56;;;;;;;;;;;20.60;29.40;;;;;;8402073;28;20419;-43
2023/04/06 18:06:56;;;;;;;;;;;20.60;29.40;;;;;;8402151;28;20462;-44
2023/04/06 18:10:57;;;;;;;;;;;20.60;29.40;;;;;;8402588;28;19912;-44
2023/04/06 18:14:57;;;;;;;;;;;20.60;29.40;;;;;;8401384;28;19923;-44
2023/04/06 18:18:59;;;;;;;;;;;20.60;29.40;;;;;;8401728;28;19959;-42
2023/04/06 18:22:59;;;;;;;;;;;20.60;29.30;;;;;;8401714;28;19917;-44
2023/04/06 18:27:00;;;;;;;;;;;20.60;29.40;;;;;;8400999;28;19924;-44
2023/04/06 18:31:01;;;;;;;;;;;20.60;29.40;;;;;;8401597;28;20366;-44
2023/04/06 18:35:01;;;;;;;;;;;20.60;29.40;;;;;;8401157;28;19913;-44
2023/04/06 18:39:02;;;;;;;;;;;20.60;29.40;;;;;;8400634;28;20417;-44
2023/04/06 18:43:04;;;;;;;;;;;20.60;29.40;;;;;;8400708;28;19919;-43
2023/04/06 18:47:05;;;;;;;;;;;20.60;29.50;;;;;;8400409;28;19931;-44
2023/04/06 18:51:05;;;;;;;;;;;20.60;29.50;;;;;;8400713;28;19917;-44
2023/04/06 18:55:06;;;;;;;;;;;20.60;29.50;;;;;;8400996;28;19927;-44
2023/04/06 18:59:08;;;;;;;;;;;20.60;29.50;;;;;;8400419;28;19999;-43
2023/04/06 19:03:08;;;;;;;;;;;20.60;29.40;;;;;;8400233;28;19927;-44
2023/04/06 19:07:08;;;;;;;;;;;20.60;29.40;;;;;;8396955;28;19932;-44
2023/04/06 19:11:09;;;;;;;;;;;20.60;29.40;;;;;;8387054;28;20459;-44
2023/04/06 19:15:10;;;;;;;;;;;20.60;29.50;;;;;;8399627;28;20439;-43
2023/04/06 19:19:10;;;;;;;;;;;20.60;29.50;;;;;;8399962;28;19922;-48
2023/04/06 19:23:11;;;;;;;;;;;20.60;29.50;;;;;;8400323;28;19912;-44
2023/04/06 19:27:11;;;;;;;;;;;20.60;29.50;;;;;;8399112;28;19931;-42
2023/04/06 19:31:13;;;;;;;;;;;20.60;29.50;;;;;;8399599;28;19916;-45
2023/04/06 19:35:14;;;;;;;;;;;20.50;29.50;;;;;;8399700;28;20015;-44
2023/04/06 19:39:16;;;;;;;;;;;20.60;29.60;;;;;;8398862;28;19913;-43
2023/04/06 19:43:19;;;;;;;;;;;20.50;29.60;;;;;;8399572;28;19997;-45
2023/04/06 19:47:19;;;;;;;;;;;20.50;29.60;;;;;;8398544;28;19932;-44
2023/04/06 19:51:20;;;;;;;;;;;20.50;29.60;;;;;;8399132;28;19916;-43
2023/04/06 19:55:20;;;;;;;;;;;20.50;29.60;;;;;;8398595;28;19917;-44
2023/04/06 19:59:21;;;;;;;;;;;20.50;29.70;;;;;;8398331;28;19977;-44
2023/04/06 20:03:21;;;;;;;;;;;20.50;29.70;;;;;;8398975;28;19920;-45
2023/04/06 20:07:22;;;;;;;;;;;20.60;29.70;;;;;;8398344;28;20377;-45
2023/04/06 20:11:22;;;;;;;;;;;20.60;29.70;;;;;;8397923;28;19922;-45
2023/04/06 20:15:23;;;;;;;;;;;20.60;29.70;;;;;;8398465;28;19916;-44
2023/04/06 20:19:23;;;;;;;;;;;20.50;29.70;;;;;;8398003;28;19923;-44
2023/04/06 20:23:24;;;;;;;;;;;20.60;29.70;;;;;;8397833;28;20293;-44
2023/04/06 20:27:25;;;;;;;;;;;20.50;29.70;;;;;;8398240;28;19942;-44
2023/04/06 20:31:26;;;;;;;;;;;20.60;29.70;;;;;;8397572;28;19916;-44
2023/04/06 20:35:26;;;;;;;;;;;20.50;29.70;;;;;;8397400;28;20025;-44
2023/04/06 20:39:27;;;;;;;;;;;20.60;29.70;;;;;;8397455;28;19912;-45
2023/04/06 20:43:28;;;;;;;;;;;20.60;29.70;;;;;;8397296;28;19917;-44
2023/04/06 20:47:30;;;;;;;;;;;20.50;29.70;;;;;;8396669;28;19931;-44
2023/04/06 20:51:30;;;;;;;;;;;20.50;29.70;;;;;;8397096;28;19916;-42
2023/04/06 20:55:32;;;;;;;;;;;20.60;29.70;;;;;;8396895;28;20442;-43
2023/04/06 20:59:33;;;;;;;;;;;20.50;29.70;;;;;;8396499;28;20289;-43
2023/04/06 21:03:33;;;;;;;;;;;20.60;29.70;;;;;;8397227;28;20019;-44
2023/04/06 21:07:34;;;;;;;;;;;20.60;29.70;;;;;;8396042;28;19936;-45
2023/04/06 21:11:34;;;;;;;;;;;20.50;29.70;;;;;;8396350;28;19962;-43
2023/04/06 21:15:35;;;;;;;;;;;20.60;29.80;;;;;;8396679;28;19912;-43
2023/04/06 21:19:35;;;;;;;;;;;20.50;29.70;;;;;;8396967;28;19917;-43
2023/04/06 21:23:36;;;;;;;;;;;20.60;29.70;;;;;;8396130;28;19917;-44
2023/04/06 21:27:36;;;;;;;;;;;20.50;29.70;;;;;;8396643;28;19964;-43
2023/04/06 21:31:40;;;;;;;;;;;20.60;29.70;;;;;;8396578;28;20380;-42
2023/04/06 21:35:40;;;;;;;;;;;20.50;29.80;;;;;;8396694;28;19923;-42
2023/04/06 21:39:40;;;;;;;;;;;20.50;29.80;;;;;;8396412;28;19913;-43
2023/04/06 21:43:41;;;;;;;;;;;20.50;29.80;;;;;;8396307;28;19995;-43
2023/04/06 21:47:41;;;;;;;;;;;20.50;29.80;;;;;;8395677;28;19974;-42
2023/04/06 21:51:42;;;;;;;;;;;20.40;29.80;;;;;;8396091;28;19917;-42
2023/04/06 21:55:43;;;;;;;;;;;20.40;29.90;;;;;;8395902;28;19916;-43
2023/04/06 21:59:44;;;;;;;;;;;20.40;29.90;;;;;;8395952;28;19920;-43
2023/04/06 22:03:44;;;;;;;;;;;20.40;29.90;;;;;;8394822;28;19925;-43
2023/04/06 22:07:45;;;;;;;;;;;20.40;29.90;;;;;;8394924;28;19924;-42
2023/04/06 22:11:45;;;;;;;;;;;20.30;29.90;;;;;;8395407;28;19916;-42
2023/04/06 22:15:46;;;;;;;;;;;20.30;29.90;;;;;;8395936;28;19913;-43
2023/04/06 22:19:47;;;;;;;;;;;20.30;29.90;;;;;;8399543;28;19920;-44
2023/04/06 22:23:47;;;;;;;;;;;20.30;29.90;;;;;;8401221;28;19924;-43
2023/04/06 22:27:47;;;;;;;;;;;20.30;29.90;;;;;;8401831;28;20011;-43
2023/04/06 22:31:48;;;;;;;;;;;20.30;29.90;;;;;;8401515;28;19920;-43
2023/04/06 22:35:48;;;;;;;;;;;20.30;30.00;;;;;;8400890;28;19922;-43
2023/04/06 22:39:49;;;;;;;;;;;20.20;30.00;;;;;;8401434;28;19912;-43
2023/04/06 22:43:49;;;;;;;;;;;20.20;30.00;;;;;;8401387;28;19923;-43
2023/04/06 22:47:50;;;;;;;;;;;20.20;30.00;;;;;;8400570;28;20439;-43
2023/04/06 22:51:50;;;;;;;;;;;20.20;30.00;;;;;;8401096;28;20266;-44
2023/04/06 22:55:51;;;;;;;;;;;20.20;30.00;;;;;;8400983;28;19912;-43
2023/04/06 22:59:51;;;;;;;;;;;20.20;30.00;;;;;;8400460;28;19917;-44
2023/04/06 23:03:52;;;;;;;;;;;20.10;30.00;;;;;;8400649;28;19943;-45
2023/04/06 23:07:52;;;;;;;;;;;20.10;30.00;;;;;;8399718;28;20011;-44
2023/04/06 23:11:52;;;;;;;;;;;20.10;30.00;;;;;;8399772;28;19940;-44
2023/04/06 23:15:53;;;;;;;;;;;20.10;30.00;;;;;;8400208;28;19920;-44
2023/04/06 23:19:53;;;;;;;;;;;20.10;30.00;;;;;;8400227;28;19921;-43
2023/04/06 23:23:54;;;;;;;;;;;20.10;30.10;;;;;;8399458;28;19999;-43